»·PEaware :: UAL623 KJAC-KSUN

UAL623 :: KJAC-KSUN

FLIGHT INFORMATION

Flight Status: Arrived
Operator:
United Airlines
More flights by this operator :: More flights under this callsign
Pilot: Sergei F. (8485)
Aircraft: BOEING 737-600
(B736)
More flights by this aircraft type
Origin: KJAC Jackson Hole
United States
Destination: KSUN Friedman Meml
United States
More flights between these airports :: More routes between these airports
Route: ALPIN4 KICNE LAVAH PIH MENIN OREYE
File this flight plan on PilotEdge
Remarks:
Altitude:
(Current/Filed)
32,000ft
Speed:
(Current/Filed)
457kts
Departed: 17-Nov-23 09:04 PM
Arrived: 17-Nov-23 09:40 PM
Distance/Time
Traveled:
155nm/0:36
Distance/Time
To Go:
Arrived

Flight Plot

Page will automatically refresh every two minutes.

Flight plan parsing failed; only flown route is shown


Map Options




Map Legend


Flown Route
Filed Route
Departure Airport
Arrival Airport
Navaid (VOR, NDB)
Fix

Horizontal Profiles

Position Reports

Time Latitude Longitude Heading Altitude Ground
Speed
17-Nov-23 20:39 43.605042 -110.736296 108 6432ft 0kts
17-Nov-23 20:40 43.605042 -110.736296 108 6432ft 0kts
17-Nov-23 20:41 43.605042 -110.736296 108 6432ft 0kts
17-Nov-23 20:42 43.605042 -110.736296 108 6432ft 0kts
17-Nov-23 20:43 43.605042 -110.736296 108 6432ft 0kts
17-Nov-23 20:44 43.605042 -110.736296 108 6432ft 0kts
17-Nov-23 20:45 43.605042 -110.736296 108 6432ft 0kts
17-Nov-23 20:46 43.605042 -110.736296 108 6432ft 0kts
17-Nov-23 20:47 43.605042 -110.736296 108 6432ft 0kts
17-Nov-23 20:48 43.605042 -110.736297 108 6432ft 0kts
17-Nov-23 20:49 43.605042 -110.736297 108 6432ft 0kts
17-Nov-23 20:50 43.605042 -110.736297 108 6432ft 0kts
17-Nov-23 20:51 43.605042 -110.736297 108 6432ft 0kts
17-Nov-23 20:52 43.605168 -110.736828 108 6427ft 1kts
17-Nov-23 20:53 43.604940 -110.737339 15 6431ft 1kts
17-Nov-23 20:54 43.604906 -110.737353 18 6429ft 0kts
17-Nov-23 20:55 43.604906 -110.737353 18 6429ft 0kts
17-Nov-23 20:56 43.604906 -110.737353 18 6432ft 0kts
17-Nov-23 20:57 43.604906 -110.737353 18 6432ft 0kts
17-Nov-23 20:58 43.605282 -110.737176 19 6432ft 5kts
17-Nov-23 20:59 43.607765 -110.735961 19 6433ft 11kts
17-Nov-23 21:00 43.611026 -110.734364 19 6432ft 13kts
17-Nov-23 21:01 43.614363 -110.732740 19 6433ft 10kts
17-Nov-23 21:02 43.615180 -110.733982 193 6438ft 3kts
17-Nov-23 21:03 43.608572 -110.737192 199 6438ft 125kts
17-Nov-23 21:04 43.567130 -110.763538 215 9448ft 159kts
17-Nov-23 21:05 43.523807 -110.804685 217 11583ft 225kts
17-Nov-23 21:06 43.464128 -110.843688 206 14879ft 248kts
17-Nov-23 21:07 43.398757 -110.882126 204 17797ft 275kts
17-Nov-23 21:08 43.316466 -110.930576 203 19672ft 344kts
17-Nov-23 21:09 43.224291 -110.986024 212 21736ft 392kts
17-Nov-23 21:10 43.148056 -111.106211 232 23302ft 434kts
17-Nov-23 21:11 43.070897 -111.237274 231 25501ft 451kts
17-Nov-23 21:12 42.990056 -111.372664 230 27481ft 467kts
17-Nov-23 21:13 42.906217 -111.512427 230 29318ft 482kts
17-Nov-23 21:14 42.821983 -111.652229 230 31662ft 474kts
17-Nov-23 21:15 42.738733 -111.789785 230 32179ft 466kts
17-Nov-23 21:16 42.718436 -111.954587 287 32196ft 461kts
17-Nov-23 21:17 42.756276 -112.121351 288 32176ft 463kts
17-Nov-23 21:18 42.793033 -112.290080 287 32171ft 464kts
17-Nov-23 21:19 42.828952 -112.457569 287 32165ft 463kts
17-Nov-23 21:20 42.864919 -112.626394 287 32157ft 462kts
17-Nov-23 21:21 42.900437 -112.795337 287 30239ft 465kts
17-Nov-23 21:22 42.935039 -112.961705 286 27295ft 445kts
17-Nov-23 21:23 42.967988 -113.121186 285 24740ft 426kts
17-Nov-23 21:24 42.998635 -113.270641 285 24198ft 380kts
17-Nov-23 21:25 43.026467 -113.407425 284 21285ft 396kts
17-Nov-23 21:26 43.055915 -113.553074 284 18649ft 385kts
17-Nov-23 21:27 43.083500 -113.690490 284 15325ft 367kts
17-Nov-23 21:28 43.109551 -113.821132 284 13286ft 341kts
17-Nov-23 21:29 43.139971 -113.935608 307 11235ft 306kts
17-Nov-23 21:30 43.190336 -114.018543 315 10116ft 262kts
17-Nov-23 21:31 43.242040 -114.073463 320 9577ft 211kts
17-Nov-23 21:32 43.285741 -114.120113 319 9227ft 197kts
17-Nov-23 21:33 43.326025 -114.163599 319 8835ft 178kts
17-Nov-23 21:34 43.365856 -114.196151 332 8196ft 152kts
17-Nov-23 21:35 43.402111 -114.220972 333 7564ft 141kts
17-Nov-23 21:36 43.439242 -114.239343 341 6572ft 136kts
17-Nov-23 21:37 43.471120 -114.263909 324 5759ft 128kts
17-Nov-23 21:38 43.500288 -114.292199 325 5289ft 113kts
17-Nov-23 21:39 43.510618 -114.302161 324 5317ft 11kts
17-Nov-23 21:40 43.509866 -114.302627 145 5319ft 6kts
17-Nov-23 21:41 43.508180 -114.300999 144 5312ft 8kts
17-Nov-23 21:42 43.506258 -114.299165 157 5309ft 4kts
17-Nov-23 21:43 43.505876 -114.299711 327 5310ft 1kts
17-Nov-23 21:44 43.505957 -114.299719 9 5307ft 0kts
17-Nov-23 21:45 43.505957 -114.299719 9 5307ft 0kts
17-Nov-23 21:46 43.505957 -114.299719 9 5307ft 0kts
17-Nov-23 21:47 43.505957 -114.299719 9 5307ft 0kts

Navigation Log

Ident Type
Flight plan parsing failed, navigation log unavailable